Time;durP1;ratioP1;P1;durP2;ratioP2;P2;SDS_P1;SDS_P2;PMS_P1;PMS_P2;Temp;Humidity;BMP_temperature;BMP_pressure;BME280_temperature;BME280_humidity;BME280_pressure;Samples;Min_cycle;Max_cycle;Signal;HPM_P1;HPM_P2
2023/12/16 00:00:12;;;;;;;7.78;2.10;;;;;;;;;;4116825;28;20047;-82
2023/12/16 00:02:13;;;;;;;12.60;2.42;;;;;;;;;;4117681;28;20042;-82
2023/12/16 00:04:14;;;;;;;6.07;1.70;;;;;;;;;;4117293;28;20508;-82
2023/12/16 00:06:18;;;;;;;12.50;2.35;;;;;;;;;;4132342;28;20050;-82
2023/12/16 00:08:20;;;;;;;11.15;1.92;;;;;;;;;;4133762;28;20049;-82
2023/12/16 00:10:21;;;;;;;5.78;1.92;;;;;;;;;;4132472;28;20042;-82
2023/12/16 00:12:22;;;;;;;10.20;1.73;;;;;;;;;;4132303;28;20499;-82
2023/12/16 00:14:23;;;;;;;12.25;2.35;;;;;;;;;;4133259;28;20514;-82
2023/12/16 00:16:25;;;;;;;11.75;2.22;;;;;;;;;;4132780;28;20189;-82
2023/12/16 00:18:26;;;;;;;10.63;1.75;;;;;;;;;;4130111;28;20495;-82
2023/12/16 00:20:27;;;;;;;10.02;2.47;;;;;;;;;;4117626;28;20043;-82
2023/12/16 00:22:29;;;;;;;5.22;1.80;;;;;;;;;;4117471;28;20057;-81
2023/12/16 00:24:30;;;;;;;8.60;2.10;;;;;;;;;;4117468;28;20546;-82
2023/12/16 00:26:31;;;;;;;7.18;2.42;;;;;;;;;;4116585;28;20047;-81
2023/12/16 00:28:32;;;;;;;8.75;1.60;;;;;;;;;;4116854;28;20487;-82
2023/12/16 00:30:33;;;;;;;8.20;1.63;;;;;;;;;;4117118;28;20475;-82
2023/12/16 00:32:34;;;;;;;9.50;1.92;;;;;;;;;;4119837;28;20046;-82
2023/12/16 00:34:35;;;;;;;8.45;1.20;;;;;;;;;;4142463;28;20070;-82
2023/12/16 00:36:37;;;;;;;7.78;1.80;;;;;;;;;;4151115;28;20042;-83
2023/12/16 00:38:38;;;;;;;4.22;1.20;;;;;;;;;;4146789;28;20042;-83
2023/12/16 00:40:40;;;;;;;6.30;1.45;;;;;;;;;;4139399;28;20506;-82
2023/12/16 00:42:41;;;;;;;7.30;1.60;;;;;;;;;;4133585;28;20042;-82
2023/12/16 00:44:43;;;;;;;6.25;1.45;;;;;;;;;;4139564;28;20506;-83
2023/12/16 00:46:44;;;;;;;8.02;1.50;;;;;;;;;;4119101;28;20487;-83
2023/12/16 00:48:46;;;;;;;3.90;1.30;;;;;;;;;;4119148;28;20053;-83
2023/12/16 00:50:47;;;;;;;7.57;1.30;;;;;;;;;;4118004;28;20411;-83
2023/12/16 00:52:48;;;;;;;7.75;1.92;;;;;;;;;;4118021;28;20067;-82
2023/12/16 00:54:50;;;;;;;6.25;1.40;;;;;;;;;;4117550;28;20484;-82
2023/12/16 00:56:51;;;;;;;8.90;1.33;;;;;;;;;;4116248;28;20050;-82
2023/12/16 00:58:54;;;;;;;9.88;1.80;;;;;;;;;;4125143;28;20484;-81
2023/12/16 01:00:55;;;;;;;4.97;1.73;;;;;;;;;;4117957;28;20063;-82
2023/12/16 01:02:58;;;;;;;5.60;1.42;;;;;;;;;;4117651;28;20101;-82
2023/12/16 01:04:59;;;;;;;7.35;1.85;;;;;;;;;;4118809;28;20059;-82
2023/12/16 01:07:03;;;;;;;5.75;1.45;;;;;;;;;;4118626;28;20528;-81
2023/12/16 01:09:04;;;;;;;4.03;1.70;;;;;;;;;;4121929;28;20051;-82
2023/12/16 01:11:05;;;;;;;5.35;1.45;;;;;;;;;;4121822;28;20080;-81
2023/12/16 01:13:07;;;;;;;3.55;0.95;;;;;;;;;;4128481;28;20108;-82
2023/12/16 01:15:09;;;;;;;5.40;1.20;;;;;;;;;;4133268;28;20059;-81
2023/12/16 01:17:12;;;;;;;11.20;1.58;;;;;;;;;;4130386;28;20135;-82
2023/12/16 01:19:13;;;;;;;3.90;1.67;;;;;;;;;;4131230;28;20150;-82
2023/12/16 01:21:17;;;;;;;14.35;2.13;;;;;;;;;;4132357;28;20062;-82
2023/12/16 01:23:18;;;;;;;9.48;2.45;;;;;;;;;;4136150;28;20058;-83
2023/12/16 01:25:19;;;;;;;6.38;1.50;;;;;;;;;;4150210;28;20077;-82
2023/12/16 01:27:50;;;;;;;4.10;1.27;;;;;;;;;;4134688;28;20067;-82
2023/12/16 01:29:51;;;;;;;5.82;1.13;;;;;;;;;;4147229;28;20054;-82
2023/12/16 01:31:53;;;;;;;3.20;1.20;;;;;;;;;;4133731;28;20046;-82
2023/12/16 01:33:54;;;;;;;6.43;1.30;;;;;;;;;;4131743;28;20079;-82
2023/12/16 01:36:06;;;;;;;5.43;1.08;;;;;;;;;;4121797;28;20066;-82
2023/12/16 01:38:07;;;;;;;4.93;1.40;;;;;;;;;;4117624;28;20530;-82
2023/12/16 01:40:09;;;;;;;7.47;1.20;;;;;;;;;;4117061;28;20042;-82
2023/12/16 01:42:11;;;;;;;8.02;1.58;;;;;;;;;;4117340;28;20038;-82
2023/12/16 01:44:12;;;;;;;12.02;2.25;;;;;;;;;;4117075;28;20057;-82
2023/12/16 01:46:19;;;;;;;8.02;1.30;;;;;;;;;;4117056;28;20050;-82
2023/12/16 01:48:22;;;;;;;5.57;1.17;;;;;;;;;;4116882;28;20051;-82
2023/12/16 01:50:24;;;;;;;5.60;1.25;;;;;;;;;;4131899;28;20045;-82
2023/12/16 01:52:25;;;;;;;7.88;1.02;;;;;;;;;;4133191;28;20045;-82
2023/12/16 01:54:26;;;;;;;5.57;1.13;;;;;;;;;;4122699;28;20175;-82
2023/12/16 01:56:29;;;;;;;8.70;1.25;;;;;;;;;;4116236;28;20105;-82
2023/12/16 01:58:30;;;;;;;8.20;2.05;;;;;;;;;;4115996;28;20047;-82
2023/12/16 02:00:32;;;;;;;3.42;1.30;;;;;;;;;;4115894;28;20411;-82
2023/12/16 02:02:34;;;;;;;4.70;1.40;;;;;;;;;;4114183;28;20082;-82
2023/12/16 02:04:37;;;;;;;6.53;1.48;;;;;;;;;;4116799;28;20047;-82
2023/12/16 02:06:39;;;;;;;14.40;2.95;;;;;;;;;;4116814;28;20488;-82
2023/12/16 02:08:41;;;;;;;5.78;1.55;;;;;;;;;;4116876;28;20055;-82
2023/12/16 02:10:44;;;;;;;10.45;1.38;;;;;;;;;;4116975;28;20122;-82
2023/12/16 02:12:45;;;;;;;7.15;1.27;;;;;;;;;;4119587;28;20059;-82
2023/12/16 02:14:46;;;;;;;4.30;1.05;;;;;;;;;;4122771;28;20057;-82
2023/12/16 02:16:47;;;;;;;3.05;1.38;;;;;;;;;;4119190;28;20066;-82
2023/12/16 02:18:50;;;;;;;9.43;2.00;;;;;;;;;;4119236;28;20043;-82
2023/12/16 02:20:51;;;;;;;8.80;1.45;;;;;;;;;;4118813;28;20051;-82
2023/12/16 02:22:53;;;;;;;10.93;2.00;;;;;;;;;;4118960;28;20451;-82
2023/12/16 02:24:55;;;;;;;4.82;2.00;;;;;;;;;;4118682;28;20058;-83
2023/12/16 02:26:56;;;;;;;9.48;1.10;;;;;;;;;;4118916;28;20046;-82
2023/12/16 02:28:58;;;;;;;7.47;1.23;;;;;;;;;;4123742;28;20096;-82
2023/12/16 02:30:59;;;;;;;5.07;1.55;;;;;;;;;;4118886;28;20045;-82
2023/12/16 02:33:00;;;;;;;7.50;1.20;;;;;;;;;;4119009;28;20495;-82
2023/12/16 02:35:01;;;;;;;5.28;1.23;;;;;;;;;;4118940;28;20133;-81
2023/12/16 02:37:06;;;;;;;6.88;1.50;;;;;;;;;;4118631;28;20392;-82
2023/12/16 02:39:07;;;;;;;6.25;1.40;;;;;;;;;;4118421;28;20395;-82
2023/12/16 02:41:08;;;;;;;7.70;1.75;;;;;;;;;;4118510;28;20050;-82
2023/12/16 02:43:09;;;;;;;4.63;1.30;;;;;;;;;;4117185;28;20046;-82
2023/12/16 02:45:10;;;;;;;6.45;1.33;;;;;;;;;;4126938;28;20054;-82
2023/12/16 02:47:12;;;;;;;5.97;1.08;;;;;;;;;;4133602;28;20422;-82
2023/12/16 02:49:13;;;;;;;6.57;1.02;;;;;;;;;;4134606;28;20565;-82
2023/12/16 02:51:18;;;;;;;10.68;1.52;;;;;;;;;;4127591;28;20077;-82
2023/12/16 02:53:19;;;;;;;5.90;1.30;;;;;;;;;;4111783;28;20055;-82
2023/12/16 02:55:20;;;;;;;12.18;1.45;;;;;;;;;;4102428;28;20444;-82
2023/12/16 02:57:21;;;;;;;9.55;1.55;;;;;;;;;;4113318;28;20510;-82
2023/12/16 02:59:23;;;;;;;9.38;1.90;;;;;;;;;;4118312;28;20051;-82
2023/12/16 03:01:24;;;;;;;10.43;1.85;;;;;;;;;;4132518;28;20095;-82
2023/12/16 03:03:26;;;;;;;11.88;1.48;;;;;;;;;;4118365;28;20396;-82
2023/12/16 03:05:27;;;;;;;5.20;1.30;;;;;;;;;;4118527;28;20460;-82
2023/12/16 03:07:28;;;;;;;7.30;1.45;;;;;;;;;;4132354;28;20054;-82
2023/12/16 03:09:30;;;;;;;7.70;1.88;;;;;;;;;;4125217;28;20865;-81
2023/12/16 03:11:31;;;;;;;7.38;1.85;;;;;;;;;;4118748;28;20054;-81
2023/12/16 03:13:32;;;;;;;10.90;1.33;;;;;;;;;;4118703;28;20047;-82
2023/12/16 03:15:33;;;;;;;10.15;1.65;;;;;;;;;;4118682;28;20133;-82
2023/12/16 03:17:34;;;;;;;13.32;2.28;;;;;;;;;;4118972;28;20047;-82
2023/12/16 03:19:35;;;;;;;9.35;1.90;;;;;;;;;;4118534;28;20042;-82
2023/12/16 03:21:37;;;;;;;4.97;1.77;;;;;;;;;;4117817;28;20403;-82
2023/12/16 03:23:39;;;;;;;6.07;1.50;;;;;;;;;;4117878;28;20480;-82
2023/12/16 03:25:43;;;;;;;13.07;1.65;;;;;;;;;;4117752;28;20047;-82
2023/12/16 03:27:44;;;;;;;8.35;1.63;;;;;;;;;;4117935;28;20553;-82
2023/12/16 03:29:45;;;;;;;12.93;2.65;;;;;;;;;;4117496;28;20514;-82
2023/12/16 03:31:46;;;;;;;18.63;1.75;;;;;;;;;;4117465;28;20066;-82
2023/12/16 03:33:47;;;;;;;7.25;1.90;;;;;;;;;;4117897;28;20078;-82
2023/12/16 03:35:48;;;;;;;11.65;1.80;;;;;;;;;;4117797;28;20043;-82
2023/12/16 03:37:49;;;;;;;7.22;1.48;;;;;;;;;;4117557;28;20400;-82
2023/12/16 03:39:50;;;;;;;10.07;1.55;;;;;;;;;;4105301;28;20053;-82
2023/12/16 03:41:51;;;;;;;9.93;1.70;;;;;;;;;;4111666;28;20130;-82
2023/12/16 03:43:52;;;;;;;12.68;1.63;;;;;;;;;;4117747;28;20534;-82
2023/12/16 03:45:54;;;;;;;11.20;1.70;;;;;;;;;;4116345;28;20064;-82
2023/12/16 03:47:55;;;;;;;10.63;2.13;;;;;;;;;;4117725;28;20480;-82
2023/12/16 03:49:56;;;;;;;8.45;1.63;;;;;;;;;;4117771;28;20492;-82
2023/12/16 03:51:58;;;;;;;7.90;1.30;;;;;;;;;;4117312;28;20039;-82
2023/12/16 03:53:59;;;;;;;12.88;2.10;;;;;;;;;;4117849;28;20493;-82
2023/12/16 03:56:00;;;;;;;10.57;1.85;;;;;;;;;;4117969;28;20515;-82
2023/12/16 03:58:01;;;;;;;6.18;1.45;;;;;;;;;;4131909;28;20606;-82
2023/12/16 04:00:02;;;;;;;8.98;1.38;;;;;;;;;;4110450;28;20530;-82
2023/12/16 04:02:03;;;;;;;9.02;1.60;;;;;;;;;;4117874;28;20073;-82
2023/12/16 04:04:04;;;;;;;10.10;1.55;;;;;;;;;;4118273;28;20050;-82
2023/12/16 04:06:10;;;;;;;10.40;1.40;;;;;;;;;;4118487;28;20047;-82
2023/12/16 04:08:11;;;;;;;9.30;1.90;;;;;;;;;;4118502;28;20050;-82
2023/12/16 04:10:12;;;;;;;12.77;1.77;;;;;;;;;;4117742;28;20046;-82
2023/12/16 04:12:14;;;;;;;6.55;2.53;;;;;;;;;;4116713;28;20101;-82
2023/12/16 04:14:15;;;;;;;8.82;1.60;;;;;;;;;;4116876;28;20057;-82
2023/12/16 04:16:16;;;;;;;9.40;1.67;;;;;;;;;;4131459;28;20058;-81
2023/12/16 04:18:18;;;;;;;10.77;2.55;;;;;;;;;;4131602;28;20050;-81
2023/12/16 04:20:19;;;;;;;15.90;1.83;;;;;;;;;;4133411;28;20049;-81
2023/12/16 04:22:20;;;;;;;11.48;1.65;;;;;;;;;;4133166;28;20090;-81
2023/12/16 04:24:21;;;;;;;14.77;1.90;;;;;;;;;;4131919;28;20046;-81
2023/12/16 04:26:23;;;;;;;7.13;1.90;;;;;;;;;;4117136;28;20046;-81
2023/12/16 04:28:24;;;;;;;8.02;1.95;;;;;;;;;;4116873;28;20057;-81
2023/12/16 04:30:25;;;;;;;16.73;2.88;;;;;;;;;;4116809;28;20125;-83
2023/12/16 04:32:26;;;;;;;7.75;1.58;;;;;;;;;;4116626;28;20039;-81
2023/12/16 04:34:27;;;;;;;9.30;2.40;;;;;;;;;;4111778;28;20539;-82
2023/12/16 04:36:29;;;;;;;11.82;2.08;;;;;;;;;;4111966;28;20403;-82
2023/12/16 04:38:30;;;;;;;6.50;1.25;;;;;;;;;;4133213;28;20491;-82
2023/12/16 04:40:31;;;;;;;8.25;1.73;;;;;;;;;;4132846;28;20511;-82
2023/12/16 04:42:32;;;;;;;7.60;1.80;;;;;;;;;;4132803;28;20107;-82
2023/12/16 04:44:33;;;;;;;7.78;1.95;;;;;;;;;;4132463;28;20050;-82
2023/12/16 04:46:35;;;;;;;10.40;1.83;;;;;;;;;;4132723;28;20498;-82
2023/12/16 04:48:36;;;;;;;10.38;1.70;;;;;;;;;;4132855;28;20046;-82
2023/12/16 04:50:37;;;;;;;11.52;1.30;;;;;;;;;;4132828;28;20443;-82
2023/12/16 04:52:38;;;;;;;9.52;2.28;;;;;;;;;;4131177;28;20038;-82
2023/12/16 04:54:41;;;;;;;14.57;1.52;;;;;;;;;;4117237;28;20051;-82
2023/12/16 04:56:43;;;;;;;9.63;1.88;;;;;;;;;;4123259;28;20578;-81
2023/12/16 04:58:45;;;;;;;8.48;2.88;;;;;;;;;;4131528;28;20471;-82
2023/12/16 05:00:46;;;;;;;10.63;2.00;;;;;;;;;;4132486;28;20443;-82
2023/12/16 05:02:47;;;;;;;12.70;2.08;;;;;;;;;;4130339;28;20133;-82
2023/12/16 05:04:49;;;;;;;11.10;1.88;;;;;;;;;;4116222;28;20476;-82
2023/12/16 05:06:50;;;;;;;11.18;1.60;;;;;;;;;;4116337;28;20484;-82
2023/12/16 05:08:51;;;;;;;12.63;2.20;;;;;;;;;;4116604;28;20510;-82
2023/12/16 05:10:52;;;;;;;11.38;1.80;;;;;;;;;;4116469;28;20109;-82
2023/12/16 05:12:53;;;;;;;16.33;2.40;;;;;;;;;;4115881;28;20039;-81
2023/12/16 05:14:54;;;;;;;13.80;1.83;;;;;;;;;;4116945;28;20492;-82
2023/12/16 05:16:55;;;;;;;15.63;2.45;;;;;;;;;;4123639;28;20050;-82
2023/12/16 05:18:56;;;;;;;17.90;2.63;;;;;;;;;;4130181;28;20046;-82
2023/12/16 05:20:57;;;;;;;16.80;3.15;;;;;;;;;;4116737;28;20047;-82
2023/12/16 05:23:01;;;;;;;17.95;2.70;;;;;;;;;;4115864;28;20069;-82
2023/12/16 05:25:03;;;;;;;11.85;2.63;;;;;;;;;;4117412;28;20053;-82
2023/12/16 05:27:04;;;;;;;7.53;2.35;;;;;;;;;;4124783;28;20137;-82
2023/12/16 05:29:06;;;;;;;9.02;1.83;;;;;;;;;;4148441;28;20085;-82
2023/12/16 05:31:07;;;;;;;16.42;3.33;;;;;;;;;;4129803;28;20457;-82
2023/12/16 05:33:08;;;;;;;19.25;3.05;;;;;;;;;;4115911;28;20508;-82
2023/12/16 05:35:09;;;;;;;15.02;2.85;;;;;;;;;;4116887;28;20475;-82
2023/12/16 05:37:10;;;;;;;13.30;2.28;;;;;;;;;;4115725;28;20066;-81
2023/12/16 05:39:11;;;;;;;13.85;1.95;;;;;;;;;;4116922;28;20434;-82
2023/12/16 05:41:14;;;;;;;22.88;2.88;;;;;;;;;;4117112;28;20050;-82
2023/12/16 05:43:16;;;;;;;9.30;2.33;;;;;;;;;;4130428;28;20085;-81
2023/12/16 05:45:17;;;;;;;16.08;2.25;;;;;;;;;;4132638;28;20069;-82
2023/12/16 05:47:18;;;;;;;15.68;2.70;;;;;;;;;;4135049;28;20108;-82
2023/12/16 05:49:19;;;;;;;16.10;3.70;;;;;;;;;;4136195;28;20038;-82
2023/12/16 05:51:21;;;;;;;24.50;3.20;;;;;;;;;;4135958;28;20046;-82
2023/12/16 05:53:23;;;;;;;15.32;2.80;;;;;;;;;;4136341;28;20050;-82
2023/12/16 05:55:24;;;;;;;17.00;3.08;;;;;;;;;;4118746;28;20557;-82
2023/12/16 05:57:25;;;;;;;18.10;3.30;;;;;;;;;;4119475;28;20506;-81
2023/12/16 05:59:28;;;;;;;16.75;4.60;;;;;;;;;;4119339;28;20390;-82
2023/12/16 06:01:29;;;;;;;29.35;3.58;;;;;;;;;;4118826;28;20121;-82
2023/12/16 06:03:30;;;;;;;10.60;3.08;;;;;;;;;;4119028;28;20082;-81
2023/12/16 06:05:31;;;;;;;12.50;2.78;;;;;;;;;;4133948;28;20054;-82
2023/12/16 06:07:32;;;;;;;13.60;3.40;;;;;;;;;;4118826;28;20097;-82
2023/12/16 06:09:34;;;;;;;11.45;2.47;;;;;;;;;;4118725;28;20403;-81
2023/12/16 06:11:36;;;;;;;16.52;2.40;;;;;;;;;;4118579;28;20109;-82
2023/12/16 06:13:38;;;;;;;17.80;2.72;;;;;;;;;;4118380;28;20043;-82
2023/12/16 06:15:39;;;;;;;14.77;3.30;;;;;;;;;;4117905;28;20415;-82
2023/12/16 06:17:40;;;;;;;12.00;2.97;;;;;;;;;;4118958;28;20049;-82
2023/12/16 06:19:41;;;;;;;11.82;2.88;;;;;;;;;;4119288;28;20051;-82
2023/12/16 06:21:42;;;;;;;22.10;3.78;;;;;;;;;;4118218;28;20101;-82
2023/12/16 06:23:43;;;;;;;21.05;3.55;;;;;;;;;;4132306;28;20433;-81
2023/12/16 06:25:44;;;;;;;19.30;3.30;;;;;;;;;;4134375;28;20085;-82
2023/12/16 06:27:45;;;;;;;15.40;2.90;;;;;;;;;;4134628;28;20197;-82
2023/12/16 06:29:46;;;;;;;19.42;3.33;;;;;;;;;;4149669;28;20062;-82
2023/12/16 06:31:48;;;;;;;18.98;4.03;;;;;;;;;;4134073;28;20051;-82
2023/12/16 06:33:51;;;;;;;24.55;3.85;;;;;;;;;;4134487;28;20395;-82
2023/12/16 06:35:54;;;;;;;19.75;3.45;;;;;;;;;;4134360;28;20554;-82
2023/12/16 06:37:55;;;;;;;14.05;3.10;;;;;;;;;;4119604;28;20476;-82
2023/12/16 06:40:05;;;;;;;21.95;4.50;;;;;;;;;;4125724;28;20038;-83
2023/12/16 06:42:07;;;;;;;29.42;4.07;;;;;;;;;;4135776;28;20106;-82
2023/12/16 06:44:09;;;;;;;25.23;4.20;;;;;;;;;;4135191;28;20097;-82
2023/12/16 06:46:10;;;;;;;24.40;4.45;;;;;;;;;;4134809;28;20047;-82
2023/12/16 06:48:12;;;;;;;14.93;4.57;;;;;;;;;;4138026;28;20054;-82
2023/12/16 06:50:13;;;;;;;17.63;4.63;;;;;;;;;;4134307;28;20046;-82
2023/12/16 06:52:15;;;;;;;24.63;4.72;;;;;;;;;;4134467;28;20049;-82
2023/12/16 06:54:52;;;;;;;19.50;4.05;;;;;;;;;;4133205;28;20034;-81
2023/12/16 06:56:56;;;;;;;21.73;3.92;;;;;;;;;;4119559;28;20122;-82
2023/12/16 06:58:58;;;;;;;18.92;4.93;;;;;;;;;;4132334;28;20069;-82
2023/12/16 07:00:59;;;;;;;29.05;5.30;;;;;;;;;;4135329;28;20491;-82
2023/12/16 07:03:01;;;;;;;23.33;4.32;;;;;;;;;;4134807;28;20510;-82
2023/12/16 07:05:03;;;;;;;28.80;4.93;;;;;;;;;;4149852;28;20057;-82
2023/12/16 07:07:04;;;;;;;22.85;4.68;;;;;;;;;;4122364;28;20500;-82
2023/12/16 07:09:06;;;;;;;32.33;6.57;;;;;;;;;;4118684;28;20043;-82
2023/12/16 07:11:07;;;;;;;30.17;6.03;;;;;;;;;;4117013;28;20054;-83
2023/12/16 07:13:08;;;;;;;27.65;5.35;;;;;;;;;;4118145;28;20034;-82
2023/12/16 07:15:10;;;;;;;42.20;5.63;;;;;;;;;;4119586;28;20059;-82
2023/12/16 07:17:13;;;;;;;21.50;5.38;;;;;;;;;;4117805;28;20106;-82
2023/12/16 07:19:14;;;;;;;33.08;4.95;;;;;;;;;;4117622;28;20075;-82
2023/12/16 07:21:15;;;;;;;27.10;4.55;;;;;;;;;;4117725;28;20092;-82
2023/12/16 07:23:16;;;;;;;30.08;6.43;;;;;;;;;;4117859;28;20476;-82
2023/12/16 07:25:18;;;;;;;35.22;5.90;;;;;;;;;;4128280;28;20480;-82
2023/12/16 07:27:19;;;;;;;39.70;6.15;;;;;;;;;;4130574;28;20118;-83
2023/12/16 07:29:20;;;;;;;37.38;6.05;;;;;;;;;;4117742;28;20491;-82
2023/12/16 07:31:21;;;;;;;33.53;6.28;;;;;;;;;;4117629;28;20487;-82
2023/12/16 07:33:24;;;;;;;23.55;5.80;;;;;;;;;;4117345;28;20047;-82
2023/12/16 07:35:25;;;;;;;35.60;6.22;;;;;;;;;;4116595;28;20181;-82
2023/12/16 07:37:26;;;;;;;33.95;6.43;;;;;;;;;;4117819;28;20484;-82
2023/12/16 07:39:27;;;;;;;37.72;6.13;;;;;;;;;;4119254;28;20466;-82
2023/12/16 07:41:28;;;;;;;40.33;6.95;;;;;;;;;;4148138;28;20053;-82
2023/12/16 07:43:29;;;;;;;35.95;6.05;;;;;;;;;;4134004;28;20078;-82
2023/12/16 07:45:30;;;;;;;27.58;6.32;;;;;;;;;;4135409;28;20501;-82
2023/12/16 07:47:32;;;;;;;33.42;7.28;;;;;;;;;;4134564;28;20043;-82
2023/12/16 07:49:33;;;;;;;31.10;6.40;;;;;;;;;;4150221;28;20049;-82
2023/12/16 07:51:36;;;;;;;30.88;7.22;;;;;;;;;;4133695;28;20728;-82
2023/12/16 07:53:38;;;;;;;29.08;6.82;;;;;;;;;;4124111;28;20456;-82
2023/12/16 07:55:40;;;;;;;30.13;6.18;;;;;;;;;;4108149;28;20484;-82
2023/12/16 07:57:41;;;;;;;35.45;6.50;;;;;;;;;;4113402;28;20042;-82
2023/12/16 07:59:43;;;;;;;39.50;6.38;;;;;;;;;;4116855;28;20403;-82
2023/12/16 08:01:52;;;;;;;45.78;7.60;;;;;;;;;;4115921;28;20538;-82
2023/12/16 08:03:53;;;;;;;29.88;6.47;;;;;;;;;;4117075;28;20082;-81
2023/12/16 08:05:55;;;;;;;38.40;7.28;;;;;;;;;;4116629;28;20089;-82
2023/12/16 08:07:56;;;;;;;26.10;7.07;;;;;;;;;;4132284;28;20049;-82
2023/12/16 08:09:57;;;;;;;37.92;6.93;;;;;;;;;;4132285;28;20046;-82
2023/12/16 08:11:58;;;;;;;36.92;7.82;;;;;;;;;;4132819;28;20052;-82
2023/12/16 08:13:59;;;;;;;34.63;6.53;;;;;;;;;;4133056;28;20046;-82
2023/12/16 08:16:01;;;;;;;30.17;5.82;;;;;;;;;;4131751;28;20058;-82
2023/12/16 08:18:02;;;;;;;29.63;5.85;;;;;;;;;;4120821;28;20062;-81
2023/12/16 08:20:05;;;;;;;39.50;6.82;;;;;;;;;;4118021;28;20139;-82
2023/12/16 08:22:06;;;;;;;36.35;6.65;;;;;;;;;;4117880;28;20059;-82
2023/12/16 08:24:07;;;;;;;27.73;6.68;;;;;;;;;;4121004;28;20399;-82
2023/12/16 08:26:10;;;;;;;31.70;6.85;;;;;;;;;;4118170;28;20090;-82
2023/12/16 08:28:11;;;;;;;36.70;7.68;;;;;;;;;;4117726;28;20046;-82
2023/12/16 08:30:14;;;;;;;29.23;6.75;;;;;;;;;;4118264;28;20893;-82
2023/12/16 08:32:15;;;;;;;38.72;7.00;;;;;;;;;;4122959;28;20053;-82
2023/12/16 08:34:16;;;;;;;34.00;6.70;;;;;;;;;;4134033;28;20530;-82
2023/12/16 08:36:17;;;;;;;32.20;6.72;;;;;;;;;;4121715;28;20057;-82
2023/12/16 08:38:19;;;;;;;39.83;7.10;;;;;;;;;;4117794;28;20486;-83
2023/12/16 08:40:20;;;;;;;34.40;6.90;;;;;;;;;;4118199;28;20442;-82
2023/12/16 08:42:21;;;;;;;26.00;6.72;;;;;;;;;;4117449;28;20137;-83
2023/12/16 08:44:22;;;;;;;25.63;6.65;;;;;;;;;;4116967;28;20447;-83
2023/12/16 08:46:25;;;;;;;30.73;6.07;;;;;;;;;;4120175;28;20467;-82
2023/12/16 08:48:27;;;;;;;34.70;7.20;;;;;;;;;;4133549;28;20050;-83
2023/12/16 08:50:28;;;;;;;41.03;7.53;;;;;;;;;;4133552;28;20129;-82
2023/12/16 08:52:31;;;;;;;38.58;7.93;;;;;;;;;;4132594;28;20054;-82
2023/12/16 08:54:32;;;;;;;39.85;7.38;;;;;;;;;;4117317;28;20092;-84
2023/12/16 08:56:33;;;;;;;36.88;8.05;;;;;;;;;;4117065;28;20503;-83
2023/12/16 08:58:34;;;;;;;37.50;8.30;;;;;;;;;;4115462;28;20042;-84
2023/12/16 09:00:36;;;;;;;28.08;6.50;;;;;;;;;;4119332;28;20054;-82
2023/12/16 09:02:37;;;;;;;29.23;7.15;;;;;;;;;;4131816;28;20491;-82
2023/12/16 09:04:38;;;;;;;31.02;6.93;;;;;;;;;;4133437;28;20050;-81
2023/12/16 09:06:41;;;;;;;35.97;7.93;;;;;;;;;;4133831;28;20549;-81
2023/12/16 09:08:42;;;;;;;41.13;7.68;;;;;;;;;;4131908;28;20434;-80
2023/12/16 09:10:43;;;;;;;34.55;7.07;;;;;;;;;;4151626;28;20054;-81
2023/12/16 09:12:44;;;;;;;35.88;6.18;;;;;;;;;;4132171;28;20047;-83
2023/12/16 09:14:45;;;;;;;37.85;8.43;;;;;;;;;;4125402;28;20167;-82
2023/12/16 09:16:47;;;;;;;36.90;8.13;;;;;;;;;;4123875;28;20081;-82
2023/12/16 09:18:48;;;;;;;40.45;7.40;;;;;;;;;;4135188;28;20504;-82
2023/12/16 09:20:52;;;;;;;29.60;6.93;;;;;;;;;;4127527;28;20042;-82
2023/12/16 09:22:54;;;;;;;35.72;6.78;;;;;;;;;;4129735;28;20035;-83
2023/12/16 09:25:15;;;;;;;31.77;7.40;;;;;;;;;;4123513;28;20373;-82
2023/12/16 09:27:18;;;;;;;30.20;6.72;;;;;;;;;;4121257;28;20507;-82
2023/12/16 09:29:19;;;;;;;29.98;5.97;;;;;;;;;;4121070;28;20039;-82
2023/12/16 09:31:20;;;;;;;34.08;7.32;;;;;;;;;;4122323;28;20488;-82
2023/12/16 09:33:22;;;;;;;38.15;7.35;;;;;;;;;;4120575;28;20046;-82
2023/12/16 09:35:23;;;;;;;32.13;6.35;;;;;;;;;;4118400;28;20095;-81
2023/12/16 09:37:24;;;;;;;28.38;6.22;;;;;;;;;;4122562;28;20177;-80
2023/12/16 09:39:25;;;;;;;34.55;7.22;;;;;;;;;;4136613;28;20042;-81
2023/12/16 09:41:30;;;;;;;45.65;8.20;;;;;;;;;;4134330;28;20513;-82
2023/12/16 09:43:33;;;;;;;43.78;8.25;;;;;;;;;;4122349;28;20054;-82
2023/12/16 09:45:35;;;;;;;30.85;8.05;;;;;;;;;;4137506;28;20479;-81
2023/12/16 09:47:36;;;;;;;33.47;6.70;;;;;;;;;;4140081;28;20046;-81
2023/12/16 09:49:41;;;;;;;32.47;6.53;;;;;;;;;;4138546;28;20046;-81
2023/12/16 09:51:42;;;;;;;34.17;6.97;;;;;;;;;;4143970;28;20057;-82
2023/12/16 09:53:44;;;;;;;30.75;6.43;;;;;;;;;;4154271;28;20039;-81
2023/12/16 09:55:45;;;;;;;37.50;7.55;;;;;;;;;;4139194;28;20049;-81
2023/12/16 09:57:46;;;;;;;31.80;6.63;;;;;;;;;;4133223;28;20057;-82
2023/12/16 09:59:48;;;;;;;27.50;6.55;;;;;;;;;;4128193;28;20082;-82
2023/12/16 10:01:53;;;;;;;39.10;7.18;;;;;;;;;;4136138;28;20047;-82
2023/12/16 10:03:56;;;;;;;26.35;7.43;;;;;;;;;;4135328;28;20026;-83
2023/12/16 10:06:16;;;;;;;34.65;7.70;;;;;;;;;;4136787;28;20027;-83
2023/12/16 10:08:27;;;;;;;37.75;7.38;;;;;;;;;;4120510;28;20047;-82
2023/12/16 10:10:29;;;;;;;28.70;6.38;;;;;;;;;;4119846;28;20051;-83
2023/12/16 10:12:37;;;;;;;35.53;7.55;;;;;;;;;;4120893;28;20066;-83
2023/12/16 10:14:45;;;;;;;33.58;7.93;;;;;;;;;;4120107;28;20141;-83
2023/12/16 10:17:02;;;;;;;24.87;6.63;;;;;;;;;;4110922;28;20043;-84
2023/12/16 10:19:03;;;;;;;35.97;6.43;;;;;;;;;;4135628;28;20057;-83
2023/12/16 10:21:05;;;;;;;27.75;6.70;;;;;;;;;;4134506;28;20483;-83
2023/12/16 10:23:08;;;;;;;25.45;6.82;;;;;;;;;;4125812;28;20046;-83
2023/12/16 10:25:09;;;;;;;37.17;7.70;;;;;;;;;;4120117;28;20097;-83
2023/12/16 10:27:11;;;;;;;30.45;7.25;;;;;;;;;;4118704;28;20046;-85
2023/12/16 10:29:13;;;;;;;27.23;7.38;;;;;;;;;;4120293;28;20049;-85
2023/12/16 10:31:21;;;;;;;29.92;7.57;;;;;;;;;;4135529;28;20582;-85
2023/12/16 10:33:27;;;;;;;29.23;7.00;;;;;;;;;;4134845;28;20046;-85
2023/12/16 10:35:30;;;;;;;25.00;6.60;;;;;;;;;;4132547;28;20573;-85
2023/12/16 10:37:32;;;;;;;34.17;7.28;;;;;;;;;;4135111;28;20166;-85
2023/12/16 10:39:33;;;;;;;30.55;6.45;;;;;;;;;;4135582;28;20098;-85
2023/12/16 10:41:34;;;;;;;32.15;6.38;;;;;;;;;;4130316;28;20496;-85
2023/12/16 10:43:37;;;;;;;38.53;8.27;;;;;;;;;;4119062;28;20054;-87
2023/12/16 10:45:39;;;;;;;29.85;7.70;;;;;;;;;;4118969;28;20081;-85
2023/12/16 10:47:43;;;;;;;28.63;7.80;;;;;;;;;;4118929;28;20053;-85
2023/12/16 10:49:46;;;;;;;23.60;7.00;;;;;;;;;;4127880;28;20495;-85
2023/12/16 10:51:50;;;;;;;30.17;6.28;;;;;;;;;;4135064;28;20042;-85
2023/12/16 10:54:03;;;;;;;29.70;7.53;;;;;;;;;;4135016;28;20062;-85
2023/12/16 10:56:07;;;;;;;19.63;6.93;;;;;;;;;;4134693;28;20492;-85
2023/12/16 10:58:25;;;;;;;28.10;7.03;;;;;;;;;;4135012;28;20046;-85
2023/12/16 11:00:28;;;;;;;24.25;6.63;;;;;;;;;;4133885;28;20081;-85
2023/12/16 11:02:30;;;;;;;30.30;7.93;;;;;;;;;;4125577;28;20050;-85
2023/12/16 11:04:35;;;;;;;24.88;6.97;;;;;;;;;;4117127;28;20046;-85
2023/12/16 11:06:43;;;;;;;25.77;6.93;;;;;;;;;;4118750;28;20129;-85
2023/12/16 11:08:45;;;;;;;28.00;6.32;;;;;;;;;;4117259;28;20047;-85
2023/12/16 11:10:46;;;;;;;30.45;6.82;;;;;;;;;;4118630;28;20042;-85
2023/12/16 11:12:47;;;;;;;21.17;5.57;;;;;;;;;;4118945;28;20047;-85
2023/12/16 11:14:49;;;;;;;30.05;6.07;;;;;;;;;;4116658;28;20514;-85
2023/12/16 11:16:54;;;;;;;19.58;5.03;;;;;;;;;;4118457;28;20078;-85
2023/12/16 11:18:56;;;;;;;21.08;5.47;;;;;;;;;;4118132;28;20039;-85
2023/12/16 11:21:04;;;;;;;16.38;5.15;;;;;;;;;;4127048;28;20042;-85
2023/12/16 11:23:06;;;;;;;26.33;6.00;;;;;;;;;;4147854;28;20056;-85
2023/12/16 11:25:15;;;;;;;25.80;5.93;;;;;;;;;;4117258;28;20055;-85
2023/12/16 11:27:19;;;;;;;17.60;5.40;;;;;;;;;;4119919;28;20403;-85
2023/12/16 11:29:22;;;;;;;20.42;5.13;;;;;;;;;;4122705;28;20055;-85
2023/12/16 11:31:23;;;;;;;19.77;4.55;;;;;;;;;;4122059;28;20102;-85
2023/12/16 11:33:24;;;;;;;16.33;4.70;;;;;;;;;;4124220;28;20039;-85
2023/12/16 11:35:37;;;;;;;13.85;4.28;;;;;;;;;;4123930;28;20050;-85
2023/12/16 11:37:38;;;;;;;15.55;4.63;;;;;;;;;;4118592;28;20046;-85
2023/12/16 11:39:40;;;;;;;13.82;4.63;;;;;;;;;;4118166;28;20137;-85
2023/12/16 11:41:44;;;;;;;11.82;4.30;;;;;;;;;;4117275;28;20047;-85
2023/12/16 11:43:48;;;;;;;11.50;4.00;;;;;;;;;;4116242;28;20065;-85
2023/12/16 11:45:49;;;;;;;11.75;3.63;;;;;;;;;;4117069;28;20054;-85
2023/12/16 11:47:50;;;;;;;9.18;3.13;;;;;;;;;;4116793;28;20046;-85
2023/12/16 11:49:52;;;;;;;14.60;3.53;;;;;;;;;;4117229;28;20050;-85
2023/12/16 11:51:54;;;;;;;13.10;4.47;;;;;;;;;;4117256;28;20042;-85
2023/12/16 11:53:57;;;;;;;13.30;3.67;;;;;;;;;;4117431;28;20051;-85
2023/12/16 11:56:00;;;;;;;15.05;3.92;;;;;;;;;;4116868;28;20051;-85
2023/12/16 11:58:02;;;;;;;12.68;3.67;;;;;;;;;;4115778;28;20491;-84
2023/12/16 12:00:04;;;;;;;13.18;3.67;;;;;;;;;;4117240;28;20101;-85
2023/12/16 12:02:06;;;;;;;12.95;3.70;;;;;;;;;;4116337;28;20097;-85
2023/12/16 12:04:08;;;;;;;12.85;4.10;;;;;;;;;;4117281;28;20046;-85